Time;durP1;ratioP1;P1;durP2;ratioP2;P2;SDS_P1;SDS_P2;PMS_P1;PMS_P2;Temp;Humidity;BMP_temperature;BMP_pressure;BME280_temperature;BME280_humidity;BME280_pressure;Samples;Min_cycle;Max_cycle;Signal;HPM_P1;HPM_P2
2024/02/22 00:00:06;;;;;;;4.40;3.13;;;11.00;99.90;;;;;;5016720;28;20180;-66
2024/02/22 00:02:32;;;;;;;3.93;3.30;;;11.00;99.90;;;;;;5016114;28;20271;-66
2024/02/22 00:04:57;;;;;;;6.50;3.23;;;11.00;99.90;;;;;;5015813;28;20454;-66
2024/02/22 00:07:23;;;;;;;4.60;2.97;;;11.00;99.90;;;;;;5019073;28;20453;-66
2024/02/22 00:09:49;;;;;;;4.30;2.90;;;11.00;99.90;;;;;;5020072;28;20196;-66
2024/02/22 00:12:14;;;;;;;4.50;2.83;;;10.90;99.90;;;;;;5019477;28;20195;-66
2024/02/22 00:14:40;;;;;;;4.40;2.80;;;10.90;99.90;;;;;;5014978;28;20299;-66
2024/02/22 00:17:06;;;;;;;5.23;3.10;;;11.00;99.90;;;;;;5015108;28;20183;-66
2024/02/22 00:19:32;;;;;;;4.33;2.80;;;10.90;99.90;;;;;;5013822;28;20466;-66
2024/02/22 00:21:58;;;;;;;5.03;3.40;;;10.90;99.90;;;;;;5018513;28;21082;-66
2024/02/22 00:24:23;;;;;;;4.70;3.17;;;10.90;99.90;;;;;;5016015;28;20272;-66
2024/02/22 00:26:49;;;;;;;3.83;2.93;;;10.90;99.90;;;;;;5012913;28;20444;-66
2024/02/22 00:29:14;;;;;;;4.07;3.03;;;10.80;99.90;;;;;;5011338;28;20212;-66
2024/02/22 00:31:40;;;;;;;3.97;3.00;;;10.90;99.90;;;;;;5017034;28;20719;-64
2024/02/22 00:34:06;;;;;;;3.70;2.40;;;10.90;99.90;;;;;;5016422;28;20197;-65
2024/02/22 00:36:43;;;;;;;4.23;2.53;;;10.90;99.90;;;;;;5021689;28;20188;-66
2024/02/22 00:39:13;;;;;;;3.83;2.70;;;10.90;99.90;;;;;;5022970;28;20205;-65
2024/02/22 00:41:39;;;;;;;4.30;3.10;;;10.90;99.90;;;;;;5015641;28;20910;-66
2024/02/22 00:44:07;;;;;;;4.67;2.80;;;10.90;99.90;;;;;;5019335;28;20450;-65
2024/02/22 00:46:33;;;;;;;5.33;2.30;;;10.80;99.90;;;;;;5013878;28;20426;-65
2024/02/22 00:48:58;;;;;;;4.73;3.10;;;10.80;99.90;;;;;;5012934;28;20427;-65
2024/02/22 00:51:24;;;;;;;6.43;2.63;;;10.80;99.90;;;;;;5011969;28;20444;-66
2024/02/22 00:53:50;;;;;;;3.13;2.47;;;10.80;99.90;;;;;;5010404;28;20201;-65
2024/02/22 00:56:15;;;;;;;3.47;2.60;;;10.80;99.90;;;;;;5022158;28;20187;-65
2024/02/22 00:58:42;;;;;;;3.90;2.67;;;10.80;99.90;;;;;;5007871;28;20291;-65
2024/02/22 01:01:08;;;;;;;3.83;2.67;;;10.80;99.90;;;;;;5015683;28;20189;-65
2024/02/22 01:03:34;;;;;;;3.93;2.67;;;10.80;99.90;;;;;;5014231;28;20447;-65
2024/02/22 01:06:00;;;;;;;4.70;2.80;;;10.90;99.90;;;;;;5017170;28;20992;-65
2024/02/22 01:08:25;;;;;;;3.30;2.37;;;10.80;99.90;;;;;;5018745;28;20967;-64
2024/02/22 01:10:51;;;;;;;3.50;2.57;;;10.80;99.90;;;;;;5018156;28;20264;-65
2024/02/22 01:13:17;;;;;;;5.23;2.60;;;10.70;99.90;;;;;;5015449;28;20643;-66
2024/02/22 01:15:43;;;;;;;4.80;2.57;;;10.80;99.90;;;;;;5016681;28;20202;-65
2024/02/22 01:18:08;;;;;;;3.60;2.53;;;10.80;99.90;;;;;;5014608;28;20495;-65
2024/02/22 01:20:34;;;;;;;4.10;2.40;;;10.80;99.90;;;;;;5017950;28;20246;-65
2024/02/22 01:23:03;;;;;;;3.90;2.80;;;10.70;99.90;;;;;;5015378;28;20557;-65
2024/02/22 01:25:28;;;;;;;3.07;2.53;;;10.70;99.90;;;;;;5014527;28;20255;-66
2024/02/22 01:27:54;;;;;;;3.70;2.60;;;10.70;99.90;;;;;;5018140;28;20819;-66
2024/02/22 01:30:19;;;;;;;7.87;3.10;;;10.70;99.90;;;;;;5017595;28;20192;-66
2024/02/22 01:32:45;;;;;;;3.57;2.77;;;10.70;99.90;;;;;;5016790;28;20192;-65
2024/02/22 01:35:11;;;;;;;3.57;2.80;;;10.80;99.90;;;;;;5016750;28;20204;-65
2024/02/22 01:37:36;;;;;;;6.10;3.33;;;10.80;99.90;;;;;;5013291;28;20649;-66
2024/02/22 01:40:03;;;;;;;3.57;2.70;;;10.70;99.90;;;;;;5012752;28;20268;-66
2024/02/22 01:42:28;;;;;;;3.90;2.97;;;10.70;99.90;;;;;;5013304;28;20661;-66
2024/02/22 01:44:54;;;;;;;3.80;2.83;;;10.70;99.90;;;;;;5010386;28;20531;-66
2024/02/22 01:47:20;;;;;;;7.00;3.10;;;10.70;99.90;;;;;;5015926;28;20181;-66
2024/02/22 01:49:45;;;;;;;4.43;2.80;;;10.80;99.90;;;;;;5013259;28;20260;-66
2024/02/22 01:52:11;;;;;;;5.57;2.50;;;10.80;99.90;;;;;;5018368;28;20475;-66
2024/02/22 01:54:37;;;;;;;4.20;2.43;;;10.80;99.90;;;;;;5014901;28;20394;-66
2024/02/22 01:57:04;;;;;;;3.60;2.67;;;10.70;99.90;;;;;;5017772;28;20219;-66
2024/02/22 01:59:31;;;;;;;6.20;2.33;;;10.90;99.90;;;;;;5013655;28;20679;-66
2024/02/22 02:01:58;;;;;;;5.47;2.13;;;10.90;99.90;;;;;;5015643;28;20432;-66
2024/02/22 02:04:24;;;;;;;3.90;2.30;;;10.90;99.90;;;;;;5016604;28;20432;-66
2024/02/22 02:06:50;;;;;;;3.90;2.37;;;10.90;99.90;;;;;;5019451;28;20435;-66
2024/02/22 02:09:16;;;;;;;3.27;2.30;;;10.80;99.90;;;;;;5014652;28;20217;-66
2024/02/22 02:11:44;;;;;;;4.57;1.90;;;10.80;99.90;;;;;;5011413;28;20206;-65
2024/02/22 02:14:09;;;;;;;2.70;2.00;;;10.80;99.90;;;;;;5013030;28;20921;-66
2024/02/22 02:16:35;;;;;;;2.43;1.90;;;10.80;99.90;;;;;;5022442;28;20447;-66
2024/02/22 02:19:01;;;;;;;6.57;1.90;;;10.80;99.90;;;;;;5007380;28;20212;-66
2024/02/22 02:21:32;;;;;;;3.23;2.27;;;10.90;99.90;;;;;;5013083;28;20663;-66
2024/02/22 02:24:19;;;;;;;5.20;2.20;;;10.80;99.90;;;;;;5017414;28;20537;-66
2024/02/22 02:26:45;;;;;;;2.60;1.77;;;10.80;99.90;;;;;;5014478;28;20416;-66
2024/02/22 02:29:11;;;;;;;2.70;2.00;;;10.90;99.90;;;;;;5015324;28;20516;-66
2024/02/22 02:31:37;;;;;;;3.40;2.00;;;10.80;99.90;;;;;;5016551;28;20266;-66
2024/02/22 02:34:03;;;;;;;3.03;1.93;;;10.80;99.90;;;;;;5014566;28;20458;-66
2024/02/22 02:36:28;;;;;;;2.77;1.80;;;10.80;99.90;;;;;;5009862;28;20181;-66
2024/02/22 02:38:54;;;;;;;3.93;1.60;;;10.80;99.90;;;;;;5016343;28;20216;-66
2024/02/22 02:41:20;;;;;;;5.10;1.90;;;10.80;99.90;;;;;;5011038;28;20177;-64
2024/02/22 02:43:45;;;;;;;2.27;1.70;;;10.80;99.90;;;;;;5014425;28;20264;-66
2024/02/22 02:46:11;;;;;;;3.00;1.87;;;10.70;99.90;;;;;;5012183;28;20177;-66
2024/02/22 02:48:36;;;;;;;4.40;2.00;;;10.70;99.90;;;;;;5012199;28;20708;-66
2024/02/22 02:51:04;;;;;;;2.90;2.00;;;10.70;99.90;;;;;;5012977;28;20208;-66
2024/02/22 02:53:29;;;;;;;3.57;2.10;;;10.70;99.90;;;;;;5014123;28;20172;-66
2024/02/22 02:55:55;;;;;;;2.80;1.87;;;10.80;99.90;;;;;;5015084;28;20450;-66
2024/02/22 02:58:20;;;;;;;2.93;1.90;;;10.70;99.90;;;;;;5013700;28;20615;-66
2024/02/22 03:00:46;;;;;;;2.57;1.70;;;10.60;99.90;;;;;;5013073;28;20256;-66
2024/02/22 03:03:11;;;;;;;3.43;2.10;;;10.70;99.90;;;;;;5013347;28;20511;-66
2024/02/22 03:05:39;;;;;;;2.80;2.07;;;10.70;99.90;;;;;;5007818;28;20232;-66
2024/02/22 03:08:05;;;;;;;2.37;1.57;;;10.70;99.90;;;;;;5016538;28;20183;-66
2024/02/22 03:10:30;;;;;;;2.43;1.80;;;10.70;99.90;;;;;;5015885;28;20420;-65
2024/02/22 03:12:56;;;;;;;2.17;1.50;;;10.70;99.90;;;;;;5012568;28;20949;-65
2024/02/22 03:15:22;;;;;;;1.93;1.33;;;10.70;99.90;;;;;;5010935;28;20729;-65
2024/02/22 03:17:47;;;;;;;2.63;1.70;;;10.70;99.90;;;;;;5010923;28;20271;-65
2024/02/22 03:20:13;;;;;;;3.33;1.67;;;10.70;99.90;;;;;;5011622;28;20173;-65
2024/02/22 03:22:41;;;;;;;3.00;2.07;;;10.70;99.90;;;;;;5015196;28;20185;-65
2024/02/22 03:25:09;;;;;;;3.67;1.93;;;10.60;99.90;;;;;;5007856;28;20742;-65
2024/02/22 03:27:34;;;;;;;2.40;1.73;;;10.70;99.90;;;;;;5017804;28;20443;-65
2024/02/22 03:30:03;;;;;;;2.00;1.40;;;10.70;99.90;;;;;;5015944;28;20998;-65
2024/02/22 03:32:29;;;;;;;2.50;1.50;;;10.70;99.90;;;;;;5014687;28;20488;-65
2024/02/22 03:34:54;;;;;;;2.50;1.60;;;10.70;99.90;;;;;;5009779;28;20463;-65
2024/02/22 03:37:20;;;;;;;3.00;1.77;;;10.70;99.90;;;;;;5011377;28;20295;-65
2024/02/22 03:39:49;;;;;;;2.53;1.67;;;10.60;99.90;;;;;;5017699;28;20200;-65
2024/02/22 03:42:16;;;;;;;2.67;1.70;;;10.70;99.90;;;;;;5009901;28;20627;-65
2024/02/22 03:44:41;;;;;;;2.20;1.60;;;10.70;99.90;;;;;;5016781;28;20527;-65
2024/02/22 03:47:07;;;;;;;3.40;1.70;;;10.70;99.90;;;;;;5014964;28;20540;-65
2024/02/22 03:49:32;;;;;;;2.47;1.50;;;10.70;99.90;;;;;;5013752;28;20571;-65
2024/02/22 03:51:58;;;;;;;2.53;1.40;;;10.70;99.90;;;;;;5015654;28;20279;-65
2024/02/22 03:54:25;;;;;;;2.67;1.90;;;10.70;99.90;;;;;;5011773;28;20204;-65
2024/02/22 03:56:51;;;;;;;3.60;2.00;;;10.70;99.90;;;;;;5012599;28;20207;-64
2024/02/22 03:59:17;;;;;;;2.00;1.40;;;10.70;99.90;;;;;;5014185;28;20463;-65
2024/02/22 04:01:42;;;;;;;3.00;1.80;;;10.80;99.90;;;;;;5012502;28;20423;-66
2024/02/22 04:04:08;;;;;;;2.77;1.70;;;10.80;99.90;;;;;;5007875;28;20205;-65
2024/02/22 04:06:34;;;;;;;2.17;1.60;;;10.70;99.90;;;;;;5012530;28;20362;-65
2024/02/22 04:09:00;;;;;;;2.23;1.40;;;10.70;99.90;;;;;;5010161;28;20185;-66
2024/02/22 04:11:25;;;;;;;3.03;1.80;;;10.70;99.90;;;;;;5012549;28;20422;-65
2024/02/22 04:13:51;;;;;;;2.20;1.60;;;10.80;99.90;;;;;;5014991;28;20213;-65
2024/02/22 04:16:16;;;;;;;2.60;1.70;;;10.80;99.90;;;;;;5009294;28;20733;-65
2024/02/22 04:18:42;;;;;;;3.13;1.93;;;10.80;99.90;;;;;;5015746;28;20201;-65
2024/02/22 04:21:09;;;;;;;2.40;1.60;;;10.70;99.90;;;;;;5014571;28;20238;-65
2024/02/22 04:23:35;;;;;;;2.40;1.70;;;10.80;99.90;;;;;;5015739;28;20416;-65
2024/02/22 04:26:00;;;;;;;2.70;1.80;;;10.80;99.90;;;;;;5019332;28;20714;-65
2024/02/22 04:28:26;;;;;;;2.60;1.73;;;10.80;99.90;;;;;;5020796;28;20552;-65
2024/02/22 04:30:52;;;;;;;3.10;1.80;;;10.70;99.90;;;;;;5015686;28;20205;-66
2024/02/22 04:33:17;;;;;;;5.63;1.70;;;10.70;99.90;;;;;;5019684;28;20193;-65
2024/02/22 04:35:47;;;;;;;2.53;1.80;;;10.70;99.90;;;;;;5016739;28;20197;-65
2024/02/22 04:38:13;;;;;;;3.90;1.53;;;10.70;99.90;;;;;;5013355;28;20208;-65
2024/02/22 04:40:39;;;;;;;4.20;1.67;;;10.70;99.90;;;;;;5013866;28;21110;-65
2024/02/22 04:43:05;;;;;;;5.80;1.90;;;10.70;99.90;;;;;;5018163;28;20212;-65
2024/02/22 04:45:31;;;;;;;3.50;1.80;;;10.70;99.90;;;;;;5016797;28;20466;-65
2024/02/22 04:47:59;;;;;;;3.20;2.10;;;10.70;99.90;;;;;;5020990;28;21002;-65
2024/02/22 04:50:25;;;;;;;3.20;2.00;;;10.70;99.90;;;;;;5012413;28;20407;-65
2024/02/22 04:52:52;;;;;;;2.57;1.77;;;10.80;99.90;;;;;;5011317;28;20458;-66
2024/02/22 04:55:18;;;;;;;2.50;1.60;;;10.70;99.90;;;;;;5012826;28;20444;-65
2024/02/22 04:57:44;;;;;;;3.37;1.67;;;10.70;99.90;;;;;;5012955;28;20424;-65
2024/02/22 05:00:11;;;;;;;3.73;1.50;;;10.60;99.90;;;;;;5016698;28;20440;-65
2024/02/22 05:02:36;;;;;;;3.03;1.90;;;10.70;99.90;;;;;;5013730;28;20412;-66
2024/02/22 05:05:03;;;;;;;3.03;1.90;;;10.70;99.90;;;;;;5013259;28;20428;-66
2024/02/22 05:07:29;;;;;;;2.80;1.83;;;10.70;99.90;;;;;;5015179;28;20268;-65
2024/02/22 05:09:55;;;;;;;2.43;1.70;;;10.70;99.90;;;;;;5017977;28;20423;-65
2024/02/22 05:12:20;;;;;;;2.27;1.60;;;10.70;99.90;;;;;;5018658;28;20442;-65
2024/02/22 05:14:46;;;;;;;2.30;1.70;;;10.80;99.90;;;;;;5015713;28;20339;-65
2024/02/22 05:17:12;;;;;;;2.37;1.83;;;10.90;99.90;;;;;;5014073;28;20185;-65
2024/02/22 05:19:39;;;;;;;2.63;2.00;;;10.90;99.90;;;;;;5014923;28;20460;-65
2024/02/22 05:22:04;;;;;;;3.40;2.20;;;11.00;99.90;;;;;;5018608;28;20435;-65
2024/02/22 05:24:31;;;;;;;2.60;1.77;;;11.00;99.90;;;;;;5013662;28;20444;-66
2024/02/22 05:26:57;;;;;;;2.83;1.90;;;10.90;99.90;;;;;;5015869;28;20264;-65
2024/02/22 05:29:23;;;;;;;2.33;1.63;;;10.90;99.90;;;;;;5017762;28;20596;-65
2024/02/22 05:31:49;;;;;;;2.63;1.80;;;10.80;99.90;;;;;;5014244;28;20260;-64
2024/02/22 05:34:14;;;;;;;2.70;1.90;;;10.90;99.90;;;;;;5018180;28;20223;-65
2024/02/22 05:36:40;;;;;;;3.20;2.10;;;10.90;99.90;;;;;;5018669;28;20172;-65
2024/02/22 05:39:07;;;;;;;2.60;2.00;;;10.90;99.90;;;;;;5019374;28;20192;-65
2024/02/22 05:41:33;;;;;;;3.03;1.90;;;10.90;99.90;;;;;;5012219;28;20181;-65
2024/02/22 05:44:01;;;;;;;3.23;1.90;;;11.00;99.90;;;;;;5021155;28;20439;-65
2024/02/22 05:46:27;;;;;;;2.10;1.40;;;11.00;99.90;;;;;;5014691;28;20412;-65
2024/02/22 05:48:53;;;;;;;3.23;1.80;;;11.00;99.90;;;;;;5014282;28;20422;-65
2024/02/22 05:51:18;;;;;;;2.57;1.80;;;11.00;99.90;;;;;;5015352;28;20264;-65
2024/02/22 05:53:44;;;;;;;2.20;1.60;;;11.10;99.90;;;;;;5016342;28;20197;-65
2024/02/22 05:56:09;;;;;;;2.23;1.50;;;11.10;99.90;;;;;;5015483;28;20188;-65
2024/02/22 05:58:35;;;;;;;4.80;1.67;;;11.10;99.90;;;;;;5018009;28;20299;-65
2024/02/22 06:01:00;;;;;;;2.60;1.60;;;11.10;99.90;;;;;;5017754;28;20579;-65
2024/02/22 06:03:26;;;;;;;3.07;1.80;;;11.10;99.90;;;;;;5012691;28;20207;-65
2024/02/22 06:05:52;;;;;;;2.83;2.07;;;11.10;99.90;;;;;;5017683;28;20271;-65
2024/02/22 06:08:18;;;;;;;2.83;1.60;;;11.10;99.90;;;;;;5014039;28;20189;-65
2024/02/22 06:10:44;;;;;;;2.50;1.90;;;11.20;99.90;;;;;;5016657;28;20184;-66
2024/02/22 06:13:09;;;;;;;2.43;1.70;;;11.20;99.90;;;;;;5013541;28;20434;-65
2024/02/22 06:15:35;;;;;;;3.90;1.87;;;11.20;99.90;;;;;;5008605;28;20303;-66
2024/02/22 06:18:01;;;;;;;2.47;1.67;;;11.10;99.90;;;;;;5013185;28;20201;-66
2024/02/22 06:20:26;;;;;;;2.00;1.30;;;11.20;99.90;;;;;;5012475;28;20188;-66
2024/02/22 06:22:52;;;;;;;6.57;1.80;;;11.20;99.90;;;;;;5009968;28;20256;-65
2024/02/22 06:25:18;;;;;;;2.30;1.50;;;11.20;99.90;;;;;;5015132;28;20569;-66
2024/02/22 06:27:43;;;;;;;2.53;1.80;;;11.20;99.90;;;;;;5012972;28;20985;-66
2024/02/22 06:30:10;;;;;;;2.63;1.73;;;11.20;99.90;;;;;;5016701;28;20181;-66
2024/02/22 06:32:36;;;;;;;1.77;1.27;;;11.20;99.90;;;;;;5019025;28;20269;-66
2024/02/22 06:35:01;;;;;;;2.50;1.50;;;11.20;99.90;;;;;;5012188;28;20864;-65
2024/02/22 06:37:27;;;;;;;1.93;1.37;;;11.30;99.90;;;;;;5017140;28;20177;-66
2024/02/22 06:39:53;;;;;;;1.93;1.30;;;11.30;99.90;;;;;;5015068;28;20213;-66
2024/02/22 06:42:19;;;;;;;2.20;1.33;;;11.30;99.90;;;;;;5015433;28;20659;-66
2024/02/22 06:44:45;;;;;;;3.70;1.43;;;11.30;99.90;;;;;;5012627;28;20440;-66
2024/02/22 06:47:11;;;;;;;2.40;1.83;;;11.30;99.90;;;;;;5015580;28;20173;-66
2024/02/22 06:49:37;;;;;;;2.20;1.50;;;11.30;99.90;;;;;;5015786;28;21567;-65
2024/02/22 06:52:03;;;;;;;2.40;1.60;;;11.30;99.90;;;;;;5017823;28;20993;-65
2024/02/22 06:54:29;;;;;;;2.63;1.30;;;11.30;99.90;;;;;;5014716;28;20212;-66
2024/02/22 06:56:54;;;;;;;1.90;1.23;;;11.30;99.90;;;;;;5015036;28;20181;-66
2024/02/22 06:59:23;;;;;;;1.90;1.40;;;11.30;99.90;;;;;;5016875;28;20262;-65
2024/02/22 07:01:49;;;;;;;3.20;1.47;;;11.30;99.90;;;;;;5017033;28;20276;-67
2024/02/22 07:04:15;;;;;;;2.30;1.40;;;11.30;99.90;;;;;;5022366;28;20454;-65
2024/02/22 07:06:40;;;;;;;2.73;1.37;;;11.30;99.90;;;;;;5017080;28;20576;-65
2024/02/22 07:09:06;;;;;;;2.23;1.47;;;11.30;99.90;;;;;;5015978;28;20434;-65
2024/02/22 07:11:32;;;;;;;2.30;1.60;;;11.30;99.90;;;;;;5018204;28;20192;-65
2024/02/22 07:13:58;;;;;;;1.80;1.20;;;11.30;99.90;;;;;;5020100;28;20211;-65
2024/02/22 07:16:25;;;;;;;2.17;1.30;;;11.40;99.90;;;;;;5019684;28;20681;-65
2024/02/22 07:18:50;;;;;;;3.20;1.33;;;11.40;99.90;;;;;;5016809;28;20490;-65
2024/02/22 07:21:16;;;;;;;2.50;1.30;;;11.40;99.90;;;;;;5020384;28;20455;-65
2024/02/22 07:23:42;;;;;;;2.83;1.77;;;11.40;99.90;;;;;;5019263;28;20196;-65
2024/02/22 07:26:09;;;;;;;2.53;1.20;;;11.40;99.90;;;;;;5018372;28;20191;-65
2024/02/22 07:28:36;;;;;;;2.30;1.30;;;11.50;99.90;;;;;;5014592;28;20442;-65
2024/02/22 07:31:02;;;;;;;2.33;1.30;;;11.40;99.90;;;;;;5018294;28;20863;-66
2024/02/22 07:33:31;;;;;;;2.00;1.30;;;11.40;99.90;;;;;;5016562;28;20419;-66
2024/02/22 07:35:58;;;;;;;2.37;1.30;;;11.50;99.90;;;;;;5017476;28;20415;-66
2024/02/22 07:38:24;;;;;;;2.50;1.33;;;11.50;99.90;;;;;;5016512;28;20474;-66
2024/02/22 07:40:54;;;;;;;1.70;1.10;;;11.50;99.90;;;;;;5018902;28;20770;-66
2024/02/22 07:43:20;;;;;;;1.60;1.10;;;11.50;99.90;;;;;;5013739;28;20434;-66
2024/02/22 07:45:45;;;;;;;2.10;1.50;;;11.50;99.90;;;;;;5012778;28;20420;-66
2024/02/22 07:48:11;;;;;;;2.83;1.40;;;11.40;99.90;;;;;;5012557;28;20323;-66
2024/02/22 07:50:37;;;;;;;2.60;1.30;;;11.40;99.90;;;;;;5013208;28;20549;-66
2024/02/22 07:53:04;;;;;;;2.10;1.30;;;11.40;99.90;;;;;;5014217;28;20428;-66
2024/02/22 07:55:30;;;;;;;2.17;1.50;;;11.50;99.90;;;;;;5013721;28;20723;-67
2024/02/22 07:57:56;;;;;;;2.07;1.20;;;11.40;99.90;;;;;;5023521;28;20549;-67
2024/02/22 08:00:21;;;;;;;1.70;1.10;;;11.50;99.90;;;;;;5017817;28;20436;-66
2024/02/22 08:02:47;;;;;;;2.00;1.50;;;11.50;99.90;;;;;;5015271;28;20201;-67
2024/02/22 08:05:13;;;;;;;3.00;1.10;;;11.50;99.90;;;;;;5020100;28;20211;-66
2024/02/22 08:07:40;;;;;;;3.20;1.20;;;11.50;99.90;;;;;;5019212;28;21046;-64
2024/02/22 08:10:06;;;;;;;2.47;1.30;;;11.60;99.90;;;;;;5020667;28;20185;-65
2024/02/22 08:12:32;;;;;;;2.47;1.30;;;11.50;99.90;;;;;;5022811;28;20418;-65
2024/02/22 08:15:08;;;;;;;2.13;1.30;;;11.60;99.90;;;;;;5022219;28;20462;-66
2024/02/22 08:17:35;;;;;;;1.80;1.20;;;11.60;99.90;;;;;;5022206;28;20180;-66
2024/02/22 08:20:01;;;;;;;2.93;1.30;;;11.60;99.90;;;;;;5030854;28;20440;-65
2024/02/22 08:22:26;;;;;;;1.70;1.10;;;11.70;99.90;;;;;;5022285;28;21640;-65
2024/02/22 08:24:52;;;;;;;1.80;1.23;;;11.70;99.90;;;;;;5023210;28;20205;-65
2024/02/22 08:27:18;;;;;;;1.73;1.10;;;11.70;99.90;;;;;;5024036;28;20188;-64
2024/02/22 08:29:48;;;;;;;6.67;1.40;;;11.60;99.90;;;;;;5012839;28;20803;-64
2024/02/22 08:32:14;;;;;;;2.47;1.30;;;11.70;99.90;;;;;;5021530;28;20177;-65
2024/02/22 08:34:39;;;;;;;3.60;1.53;;;11.80;99.90;;;;;;5016698;28;20778;-65
2024/02/22 08:37:05;;;;;;;2.07;1.40;;;11.80;99.90;;;;;;5018990;28;20662;-65
2024/02/22 08:39:30;;;;;;;1.90;1.20;;;11.90;99.90;;;;;;5018450;28;20285;-65
2024/02/22 08:41:56;;;;;;;1.93;1.20;;;11.90;99.90;;;;;;5013032;28;20216;-64
2024/02/22 08:44:21;;;;;;;1.70;1.10;;;11.90;99.90;;;;;;5023861;28;20207;-64
2024/02/22 08:46:47;;;;;;;2.07;1.40;;;11.90;99.90;;;;;;5016936;28;20196;-64
2024/02/22 08:49:12;;;;;;;2.10;1.20;;;11.90;99.90;;;;;;5015217;28;20212;-64
2024/02/22 08:51:38;;;;;;;1.93;1.10;;;11.90;99.90;;;;;;5022106;28;20190;-64
2024/02/22 08:54:04;;;;;;;2.10;1.20;;;11.90;99.90;;;;;;5022983;28;20659;-65
2024/02/22 08:56:29;;;;;;;2.13;1.30;;;11.90;99.90;;;;;;5027527;28;20639;-64
2024/02/22 08:58:57;;;;;;;1.80;1.20;;;11.90;99.90;;;;;;5020311;28;20204;-64
2024/02/22 09:01:23;;;;;;;2.07;1.10;;;12.00;99.90;;;;;;5017083;28;20270;-65
2024/02/22 09:03:49;;;;;;;2.00;1.20;;;12.00;99.90;;;;;;5012903;28;20870;-65
2024/02/22 09:06:15;;;;;;;2.53;1.30;;;12.10;99.90;;;;;;5017598;28;20420;-65
2024/02/22 09:08:41;;;;;;;3.80;1.10;;;12.20;99.90;;;;;;5015251;28;20184;-66
2024/02/22 09:11:07;;;;;;;2.43;1.20;;;12.20;99.90;;;;;;5017045;28;20188;-65
2024/02/22 09:13:33;;;;;;;1.90;1.20;;;12.20;99.90;;;;;;5015858;28;20424;-65
2024/02/22 09:15:59;;;;;;;2.03;1.10;;;12.20;99.90;;;;;;5017400;28;20211;-65
2024/02/22 09:18:24;;;;;;;1.60;0.93;;;12.20;99.90;;;;;;5018761;28;20709;-64
2024/02/22 09:20:50;;;;;;;1.90;1.13;;;12.20;99.90;;;;;;5020447;28;20427;-65
2024/02/22 09:23:16;;;;;;;2.27;1.30;;;12.20;99.90;;;;;;5022746;28;20247;-64
2024/02/22 09:25:42;;;;;;;2.80;1.53;;;12.10;99.90;;;;;;5021583;28;20268;-65
2024/02/22 09:28:09;;;;;;;2.27;1.63;;;12.20;99.90;;;;;;5022391;28;20185;-65
2024/02/22 09:30:35;;;;;;;2.90;1.23;;;12.30;99.90;;;;;;5013239;28;20439;-64
2024/02/22 09:33:01;;;;;;;2.10;1.40;;;12.40;99.90;;;;;;5015840;28;20574;-65
2024/02/22 09:35:27;;;;;;;1.70;1.10;;;12.40;99.90;;;;;;5023962;28;21006;-65
2024/02/22 09:37:52;;;;;;;3.53;1.10;;;12.40;99.90;;;;;;5015617;28;20408;-65
2024/02/22 09:40:21;;;;;;;2.57;1.10;;;12.50;99.90;;;;;;5018220;28;20216;-65
2024/02/22 09:42:47;;;;;;;3.20;1.43;;;12.60;99.90;;;;;;5014250;28;20659;-65
2024/02/22 09:45:14;;;;;;;3.83;1.27;;;12.50;99.90;;;;;;5020049;28;20888;-65
2024/02/22 09:47:40;;;;;;;1.67;1.00;;;12.50;99.90;;;;;;5017036;28;20419;-65
2024/02/22 09:50:09;;;;;;;1.90;1.13;;;12.40;99.90;;;;;;5012544;28;20413;-65
2024/02/22 09:52:38;;;;;;;1.90;1.10;;;12.50;99.90;;;;;;5016124;28;20427;-65
2024/02/22 09:55:05;;;;;;;2.23;1.30;;;12.50;99.90;;;;;;5014171;28;20436;-65
2024/02/22 09:57:31;;;;;;;1.80;1.03;;;12.70;99.90;;;;;;5017857;28;20415;-65
2024/02/22 09:59:58;;;;;;;1.73;1.10;;;12.80;99.90;;;;;;5011106;28;20494;-65
2024/02/22 10:02:23;;;;;;;1.70;1.00;;;12.70;99.90;;;;;;5014119;28;20894;-64
2024/02/22 10:04:56;;;;;;;1.60;1.00;;;12.70;99.90;;;;;;5015510;28;20467;-64
2024/02/22 10:07:30;;;;;;;2.30;1.10;;;12.80;99.90;;;;;;5012535;28;20185;-65
2024/02/22 10:09:56;;;;;;;1.70;1.00;;;12.80;99.90;;;;;;5013520;28;20470;-64
2024/02/22 10:12:26;;;;;;;2.30;1.00;;;12.90;99.90;;;;;;5020305;28;20455;-66
2024/02/22 10:14:52;;;;;;;2.53;0.90;;;12.90;99.90;;;;;;5018262;28;20218;-65
2024/02/22 10:17:29;;;;;;;2.00;1.10;;;13.00;99.90;;;;;;5017575;28;20857;-65
2024/02/22 10:20:06;;;;;;;8.83;3.43;;;13.00;99.90;;;;;;5013683;28;20475;-65
2024/02/22 10:22:34;;;;;;;1.73;1.07;;;13.10;99.90;;;;;;5015943;28;20423;-65
2024/02/22 10:25:26;;;;;;;2.27;1.00;;;13.10;99.90;;;;;;5017785;28;20552;-65
2024/02/22 10:27:51;;;;;;;1.70;1.00;;;13.20;99.90;;;;;;5011774;28;20937;-65
2024/02/22 10:30:18;;;;;;;1.77;0.90;;;13.10;99.90;;;;;;5016845;28;20438;-65
2024/02/22 10:32:45;;;;;;;1.80;0.90;;;13.10;99.90;;;;;;5015158;28;20189;-65
2024/02/22 10:35:12;;;;;;;1.80;1.00;;;13.00;99.90;;;;;;5018955;28;20431;-65
2024/02/22 10:37:38;;;;;;;2.20;1.33;;;13.10;99.90;;;;;;5017594;28;21471;-65
2024/02/22 10:40:05;;;;;;;1.60;1.10;;;13.00;99.90;;;;;;5013955;28;20532;-65
2024/02/22 10:42:32;;;;;;;2.10;1.20;;;13.10;99.90;;;;;;5009799;28;20183;-65
2024/02/22 10:44:58;;;;;;;1.60;1.00;;;13.00;99.90;;;;;;5016369;28;20447;-65
2024/02/22 10:47:25;;;;;;;1.77;1.10;;;13.10;99.90;;;;;;5013885;28;20439;-65
2024/02/22 10:49:55;;;;;;;2.17;1.40;;;13.10;99.90;;;;;;5008049;28;20461;-65
2024/02/22 10:52:23;;;;;;;1.60;1.10;;;13.10;99.90;;;;;;5012892;28;20461;-66
2024/02/22 10:54:59;;;;;;;1.77;1.03;;;13.30;99.90;;;;;;5006460;28;20502;-66
2024/02/22 10:57:28;;;;;;;2.43;1.30;;;13.20;99.90;;;;;;5010936;28;20427;-66
2024/02/22 10:59:56;;;;;;;1.70;1.10;;;13.10;99.90;;;;;;5006130;28;20617;-65
2024/02/22 11:02:23;;;;;;;2.17;1.17;;;13.00;99.90;;;;;;5015707;28;20424;-66
2024/02/22 11:04:49;;;;;;;2.90;1.50;;;13.00;99.90;;;;;;5007626;28;20794;-66
2024/02/22 11:07:18;;;;;;;1.97;1.30;;;13.00;99.90;;;;;;5011115;28;20418;-65
2024/02/22 11:09:49;;;;;;;2.30;1.27;;;13.00;99.90;;;;;;5013897;28;20666;-65
2024/02/22 11:12:15;;;;;;;1.90;1.20;;;12.90;99.90;;;;;;5016438;28;20933;-65
2024/02/22 11:14:41;;;;;;;2.10;1.40;;;13.10;99.90;;;;;;5015347;28;20481;-65
2024/02/22 11:17:26;;;;;;;1.90;1.20;;;13.10;99.90;;;;;;5013651;28;20185;-65
2024/02/22 11:19:54;;;;;;;1.90;1.50;;;13.10;99.90;;;;;;5009946;28;20205;-65
2024/02/22 11:22:20;;;;;;;2.37;1.60;;;13.10;99.90;;;;;;5011334;28;20435;-64
2024/02/22 11:24:47;;;;;;;2.33;1.50;;;13.10;99.90;;;;;;5010667;28;20451;-65
2024/02/22 11:27:17;;;;;;;2.73;1.73;;;13.10;99.90;;;;;;5016461;28;20510;-65
2024/02/22 11:29:43;;;;;;;1.90;1.30;;;13.10;99.90;;;;;;5011221;28;20423;-65
2024/02/22 11:32:11;;;;;;;1.90;1.27;;;13.30;99.90;;;;;;5015062;28;20423;-65
2024/02/22 11:34:38;;;;;;;2.00;1.37;;;13.40;99.90;;;;;;5009837;28;20431;-65
2024/02/22 11:37:18;;;;;;;2.67;1.30;;;13.50;99.90;;;;;;5014878;28;20415;-65
2024/02/22 11:39:44;;;;;;;2.73;1.10;;;13.60;99.90;;;;;;5013576;28;20467;-65
2024/02/22 11:42:17;;;;;;;2.73;1.30;;;13.70;99.90;;;;;;5011993;28;20434;-66
2024/02/22 11:44:43;;;;;;;1.87;1.13;;;13.90;99.90;;;;;;5013060;28;20458;-65
2024/02/22 11:47:10;;;;;;;2.00;1.20;;;14.10;99.90;;;;;;5014995;28;20808;-65
2024/02/22 11:49:36;;;;;;;2.10;1.20;;;14.20;99.90;;;;;;5011078;28;20866;-65
2024/02/22 11:52:02;;;;;;;2.27;1.23;;;14.10;99.90;;;;;;5013318;28;20571;-65
2024/02/22 11:54:28;;;;;;;1.80;1.10;;;14.20;99.90;;;;;;5011518;28;20204;-65
2024/02/22 11:56:54;;;;;;;1.70;1.00;;;14.20;99.90;;;;;;5017495;28;20432;-65
2024/02/22 11:59:19;;;;;;;1.90;1.10;;;14.30;99.90;;;;;;5010405;28;20205;-65
2024/02/22 12:01:46;;;;;;;2.27;1.37;;;14.40;99.90;;;;;;5011849;28;20192;-66
2024/02/22 12:04:12;;;;;;;2.10;1.23;;;14.40;99.90;;;;;;5009769;28;20719;-65
2024/02/22 12:06:38;;;;;;;2.07;1.30;;;14.50;99.90;;;;;;5015672;28;20437;-65
2024/02/22 12:09:04;;;;;;;2.23;1.43;;;14.40;99.90;;;;;;5016872;28;20199;-65
2024/02/22 12:11:30;;;;;;;2.57;1.53;;;14.50;99.90;;;;;;5013285;28;20932;-66
2024/02/22 12:14:03;;;;;;;2.60;1.57;;;14.40;99.90;;;;;;5014353;28;20457;-65
2024/02/22 12:16:29;;;;;;;3.07;1.40;;;14.40;99.90;;;;;;5009796;28;20331;-65
2024/02/22 12:18:56;;;;;;;2.13;1.50;;;14.40;99.90;;;;;;5013488;28;20503;-65
2024/02/22 12:21:26;;;;;;;2.53;1.67;;;14.20;99.90;;;;;;5016100;28;20465;-65
2024/02/22 12:24:02;;;;;;;5.67;2.03;;;14.10;99.90;;;;;;5015013;28;20870;-65
2024/02/22 12:26:28;;;;;;;3.00;1.90;;;14.00;99.90;;;;;;5013172;28;20422;-65
2024/02/22 12:28:55;;;;;;;3.10;2.03;;;13.90;99.90;;;;;;5013232;28;20440;-65
2024/02/22 12:31:21;;;;;;;3.60;2.07;;;13.90;99.90;;;;;;5013705;28;20970;-64
2024/02/22 12:33:52;;;;;;;3.10;2.17;;;13.90;99.90;;;;;;5015386;28;20443;-65
2024/02/22 12:36:18;;;;;;;2.53;1.77;;;13.80;99.90;;;;;;5004416;28;20496;-64
2024/02/22 12:38:45;;;;;;;2.13;1.50;;;13.60;99.90;;;;;;5015364;28;20510;-65
2024/02/22 12:41:14;;;;;;;2.50;1.67;;;13.60;99.90;;;;;;5017947;28;20416;-65
2024/02/22 12:43:45;;;;;;;2.03;1.47;;;13.50;99.90;;;;;;5021576;28;20930;-65